• Join FlightAware (Why Join?)
  • Login
  • US Flag 
06:41AM EDT


 

Airport Tracker/Info


-or-


 

Live Flight TrackerFlight Track Log ✈ N646BD ✈ 05-Nov-2013 ✈ KRYY - KTYS

Flight Track Log - Related Links

Times and Time Zones

All times are in EST time to prevent confusion due to time zone crossing. See the N646BD flight status page for this flight to view local times or setup timezone preferences in your user account.

Time Position Orientation Groundspeed Altitude Reporting Facility
EST Latitude Longitude Course Direction KTS MPH feet Rate Location/Type
09:23AM 34.0167 -84.5667 360° North 116 133 2,500  Level Atlanta TRACON
09:24AM 34.0667 -84.5667 360° North 145 167 3,600 1,080 Climbing Atlanta TRACON
09:24AM 34.0958 -84.5706 354° North 147 169 4,400 1,080 Climbing Atlanta Center
09:25AM 34.1333 -84.5583 15° North 141 162 5,600 1,140 Climbing Atlanta Center
09:26AM 34.1667 -84.5483 14° North 146 168 6,700 1,080 Climbing Atlanta Center
09:27AM 34.2064 -84.5411 North 159 183 7,800 960 Climbing Atlanta Center
09:28AM 34.2419 -84.5339 10° North 159 183 8,700 960 Climbing Atlanta Center
09:29AM 34.2839 -84.5267 North 149 171 9,800 1,020 Climbing Atlanta Center
09:30AM 34.3233 -84.5142 15° North 143 165 10,800 600 Climbing Atlanta Center
09:31AM 34.3675 -84.4969 18° North 151 174 11,000 60 Climbing Atlanta Center
09:32AM 34.4175 -84.4794 16° North 169 194 11,000  Level Atlanta Center
09:33AM 34.4678 -84.4619 16° North 179 206 11,000  Level Atlanta Center
09:34AM 34.5242 -84.4422 16° North 185 213 11,000  Level Atlanta Center
09:35AM 34.5742 -84.4247 16° North 185 213 11,000  Level Atlanta Center
09:36AM 34.6244 -84.4097 14° North 185 213 11,000  Level Atlanta Center
09:37AM 34.6767 -84.3900 17° North 185 213 11,000  Level Atlanta Center
09:38AM 34.7267 -84.3725 16° North 185 213 11,000  Level Atlanta Center
09:39AM 34.7769 -84.3547 16° North 185 213 11,000  Level Atlanta Center
09:40AM 34.8292 -84.3375 15° North 185 213 11,000  Level Atlanta Center
09:41AM 34.8814 -84.3197 16° North 185 213 11,000  Level Atlanta Center
09:42AM 34.9314 -84.3072 12° North 185 213 11,000  Level Atlanta Center
09:43AM 34.9836 -84.2897 15° North 185 213 11,000  Level Atlanta Center
09:44AM 35.0358 -84.2697 17° North 185 213 11,000  Level Atlanta Center
09:45AM 35.0881 -84.2519 16° North 185 213 11,000  Level Atlanta Center
09:46AM 35.1403 -84.2344 15° North 185 213 11,000  Level Atlanta Center
09:47AM 35.1944 -84.2167 15° North 185 213 11,000  Level Atlanta Center
09:48AM 35.2467 -84.1964 18° North 185 213 11,000  Level Atlanta Center
09:49AM 35.2989 -84.1761 18° North 185 213 11,000 -360 Level Atlanta Center
09:50AM 35.3553 -84.1558 16° North 185 213 10,300 -540 Descending Atlanta Center
09:51AM 35.4117 -84.1381 14° North 197 227 10,000 -180 Descending Atlanta Center
09:52AM 35.4636 -84.1458 353° North 197 227 10,000 -180 Level Atlanta Center
09:53AM 35.5136 -84.1739 335° Northwest 192 221 9,700 -600 Descending Atlanta Center
09:54AM 35.5681 -84.2047 335° Northwest 203 234 8,800 -900 Descending Atlanta Center
09:55AM 35.6264 -84.2175 350° North 209 241 8,000 -840 Descending Atlanta Center
09:57AM 35.6577 -84.1743 48° Northeast  Level FlightAware Approximate
10:04AM 35.8000 -83.9833 39° Northeast  Level FlightAware Approximate
10:05AM 35.8110 -83.9940 39° Northeast  Level Estimated
10:06AM 35.8110 -83.9940 39° Northeast  Level Estimated
10:07AM 35.8110 -83.9940 39° Northeast  Level Estimated
10:08AM 35.8110 -83.9940 39° Northeast  Level Estimated
10:09AM 35.8110 -83.9940 39° Northeast  Level Estimated